Time;durP1;ratioP1;P1;durP2;ratioP2;P2;SDS_P1;SDS_P2;PMS_P1;PMS_P2;Temp;Humidity;BMP_temperature;BMP_pressure;BME280_temperature;BME280_humidity;BME280_pressure;Samples;Min_cycle;Max_cycle;Signal;HPM_P1;HPM_P2
2022/12/07 00:06:52;;;;;;;1999.90;999.90;;;4.50;99.90;;;;;;6724088;88;20519;-78
2022/12/07 00:16:53;;;;;;;1999.90;999.90;;;4.50;99.90;;;;;;6727302;88;20810;-78
2022/12/07 00:26:53;;;;;;;1999.90;999.90;;;4.60;99.90;;;;;;6728442;88;20221;-78
2022/12/07 00:36:54;;;;;;;1999.90;999.90;;;4.70;99.90;;;;;;6737405;88;20238;-78
2022/12/07 00:46:55;;;;;;;1999.90;999.90;;;4.70;99.90;;;;;;6740978;88;20206;-78
2022/12/07 00:56:56;;;;;;;1999.90;999.90;;;4.70;99.90;;;;;;6741305;88;20168;-78
2022/12/07 01:06:56;;;;;;;1999.90;999.90;;;4.80;99.90;;;;;;6743093;88;20192;-78
2022/12/07 01:16:57;;;;;;;1999.90;999.90;;;4.90;99.90;;;;;;6749886;88;20229;-78
2022/12/07 01:26:57;;;;;;;1999.90;999.90;;;4.80;99.90;;;;;;6748177;88;20201;-77
2022/12/07 01:36:58;;;;;;;1999.90;999.90;;;4.90;99.90;;;;;;6751613;88;20200;-78
2022/12/07 01:47:04;;;;;;;1999.90;999.90;;;4.90;99.90;;;;;;6741394;88;20208;-78
2022/12/07 01:57:06;;;;;;;1999.90;999.90;;;5.00;99.90;;;;;;6728415;88;20658;-77
2022/12/07 02:07:06;;;;;;;1999.90;999.90;;;5.00;99.90;;;;;;6721625;88;20660;-78
2022/12/07 02:17:25;;;;;;;1999.90;999.90;;;4.90;99.90;;;;;;6725467;88;20202;-78
2022/12/07 02:27:43;;;;;;;1999.90;999.90;;;4.90;99.90;;;;;;6726885;88;20486;-78
2022/12/07 02:38:01;;;;;;;1999.90;999.90;;;5.00;99.90;;;;;;6739981;88;20702;-78
2022/12/07 02:48:03;;;;;;;1999.90;999.90;;;4.90;99.90;;;;;;6726568;88;20194;-77
2022/12/07 02:58:30;;;;;;;1999.90;999.90;;;5.00;99.90;;;;;;6730818;88;20216;-77
2022/12/07 03:08:46;;;;;;;1999.90;999.90;;;5.00;99.90;;;;;;6726809;88;20188;-77
2022/12/07 03:19:02;;;;;;;1999.90;999.90;;;5.00;99.90;;;;;;6736514;77;20194;-73
2022/12/07 03:29:13;;;;;;;1999.90;999.90;;;5.00;99.90;;;;;;6723364;88;20619;-74
2022/12/07 03:39:28;;;;;;;1999.90;999.90;;;5.00;99.90;;;;;;6729672;88;20179;-74
2022/12/07 03:49:48;;;;;;;1999.90;999.90;;;5.00;99.90;;;;;;6713611;88;20177;-74
2022/12/07 03:59:49;;;;;;;1999.90;999.90;;;5.00;99.90;;;;;;6713288;88;20190;-74
2022/12/07 04:09:49;;;;;;;1999.90;999.90;;;5.00;99.90;;;;;;6712918;88;20190;-73
2022/12/07 04:19:50;;;;;;;1999.90;999.90;;;4.90;99.90;;;;;;6713452;88;20205;-74
2022/12/07 04:29:50;;;;;;;1999.90;999.90;;;5.00;99.90;;;;;;6711317;88;20215;-74
2022/12/07 04:39:51;;;;;;;1999.90;999.90;;;5.00;99.90;;;;;;6708893;88;20717;-74
2022/12/07 04:49:51;;;;;;;1999.90;999.90;;;4.90;99.90;;;;;;6714224;88;20248;-74
2022/12/07 04:59:52;;;;;;;1999.90;999.90;;;4.90;99.90;;;;;;6713746;88;20282;-74
2022/12/07 05:09:52;;;;;;;1999.90;999.90;;;4.90;99.90;;;;;;6713006;88;20212;-75
2022/12/07 05:19:53;;;;;;;1999.90;999.90;;;4.80;99.90;;;;;;6711976;88;20278;-74
2022/12/07 05:29:53;;;;;;;1999.90;999.90;;;4.90;99.90;;;;;;6709100;88;20289;-74
2022/12/07 05:39:54;;;;;;;1999.90;999.90;;;4.90;99.90;;;;;;6713266;88;21093;-74
2022/12/07 05:49:54;;;;;;;1999.90;999.90;;;4.80;99.90;;;;;;6711757;88;20328;-74
2022/12/07 05:59:55;;;;;;;1999.90;999.90;;;4.80;99.90;;;;;;6714763;88;20210;-74
2022/12/07 06:09:55;;;;;;;1999.90;999.90;;;4.80;99.90;;;;;;6712822;88;20337;-74
2022/12/07 06:19:56;;;;;;;1999.90;999.90;;;4.90;99.90;;;;;;6711357;88;20253;-74
2022/12/07 06:29:57;;;;;;;1999.90;999.90;;;4.90;99.90;;;;;;6711190;88;20300;-74
2022/12/07 06:39:57;;;;;;;1999.90;999.90;;;4.90;99.90;;;;;;6712377;88;20641;-75
2022/12/07 06:49:58;;;;;;;1999.90;999.90;;;4.80;99.90;;;;;;6715336;88;20755;-77
2022/12/07 06:59:58;;;;;;;1999.90;999.90;;;4.60;99.90;;;;;;6718801;88;20248;-76
2022/12/07 07:09:59;;;;;;;1999.90;999.90;;;4.50;99.90;;;;;;6712321;88;20356;-75
2022/12/07 07:19:59;;;;;;;1999.90;999.90;;;4.50;99.90;;;;;;6727381;88;20182;-74
2022/12/07 07:30:00;;;;;;;1999.90;999.90;;;4.40;99.90;;;;;;6730884;88;20210;-76
2022/12/07 07:40:00;;;;;;;1999.90;999.90;;;4.40;99.90;;;;;;6719140;88;20205;-77
2022/12/07 07:50:01;;;;;;;1999.90;999.90;;;4.40;99.90;;;;;;6717345;88;20273;-75
2022/12/07 08:00:05;;;;;;;1999.90;999.90;;;4.50;99.90;;;;;;6721718;88;20182;-75
2022/12/07 08:10:08;;;;;;;1999.90;999.90;;;4.60;99.90;;;;;;6717592;88;20182;-74
2022/12/07 08:20:09;;;;;;;1999.90;999.90;;;4.80;99.90;;;;;;6721441;88;20197;-76
2022/12/07 08:30:10;;;;;;;1999.90;999.90;;;4.80;99.90;;;;;;6712341;88;20722;-75
2022/12/07 08:40:15;;;;;;;1999.90;999.90;;;4.70;99.90;;;;;;6713610;88;20700;-73
2022/12/07 08:50:16;;;;;;;1999.90;999.90;;;4.70;99.90;;;;;;6713119;88;21120;-75
2022/12/07 09:00:17;;;;;;;1999.90;999.90;;;4.80;99.90;;;;;;6722308;88;20190;-75
2022/12/07 09:10:18;;;;;;;1999.90;999.90;;;5.10;99.90;;;;;;6714227;88;20428;-74
2022/12/07 09:20:19;;;;;;;1999.90;999.90;;;5.00;99.90;;;;;;6710110;88;20722;-75
2022/12/07 09:41:23;;;;;;;1999.90;999.90;;;5.40;99.90;;;;;;6709287;88;20884;-77
2022/12/07 09:51:24;;;;;;;1999.90;999.90;;;5.50;99.90;;;;;;6711420;88;20545;-78
2022/12/07 10:01:24;;;;;;;1999.90;999.90;;;5.60;99.90;;;;;;6718255;88;20308;-77
2022/12/07 10:11:25;;;;;;;1999.90;999.90;;;5.80;99.90;;;;;;6712244;88;20224;-77
2022/12/07 10:21:26;;;;;;;1999.90;999.90;;;5.90;99.90;;;;;;6716584;88;20202;-78
2022/12/07 10:31:28;;;;;;;1999.90;999.90;;;6.00;99.90;;;;;;6713435;88;20265;-77
2022/12/07 10:41:28;;;;;;;1999.90;999.90;;;6.50;99.90;;;;;;6714151;88;20384;-77
2022/12/07 10:51:54;;;;;;;1999.90;999.90;;;6.80;99.90;;;;;;6713450;88;20231;-77
2022/12/07 11:02:19;;;;;;;1999.90;999.90;;;6.90;99.90;;;;;;6713474;88;20279;-78
2022/12/07 11:12:41;;;;;;;1999.90;999.90;;;6.80;99.90;;;;;;6724343;88;20202;-77
2022/12/07 11:22:41;;;;;;;1999.90;999.90;;;6.70;99.90;;;;;;6714088;88;20202;-77
2022/12/07 11:33:17;;;;;;;1999.90;999.90;;;6.70;99.90;;;;;;6713509;88;20186;-77
2022/12/07 11:43:29;;;;;;;1999.90;999.90;;;6.60;99.90;;;;;;6711552;88;20636;-77
2022/12/07 11:53:33;;;;;;;1999.90;999.90;;;6.60;99.90;;;;;;6709243;88;20873;-77
2022/12/07 12:03:40;;;;;;;1999.90;999.90;;;7.40;99.90;;;;;;6710927;88;20198;-77
2022/12/07 12:14:02;;;;;;;1999.90;999.90;;;7.30;99.90;;;;;;6711950;88;20315;-76
2022/12/07 12:24:17;;;;;;;1999.90;999.90;;;7.20;99.90;;;;;;6710019;88;20197;-77
2022/12/07 12:34:55;;;;;;;1999.90;999.90;;;7.10;99.90;;;;;;6711970;88;21072;-77
2022/12/07 12:45:25;;;;;;;1999.90;999.90;;;7.00;99.90;;;;;;6711002;88;20198;-77
2022/12/07 12:55:41;;;;;;;1999.90;999.90;;;6.60;99.90;;;;;;6704288;88;20725;-77
2022/12/07 13:05:42;;;;;;;1999.90;999.90;;;6.40;99.90;;;;;;6718344;88;20209;-77
2022/12/07 13:15:51;;;;;;;1999.90;999.90;;;6.50;99.90;;;;;;6714075;88;20218;-77
2022/12/07 13:26:15;;;;;;;1999.90;999.90;;;6.30;99.90;;;;;;6706626;88;20413;-77
2022/12/07 13:36:25;;;;;;;1999.90;999.90;;;6.20;99.90;;;;;;6715538;88;20226;-77
2022/12/07 13:46:50;;;;;;;1999.90;999.90;;;6.20;99.90;;;;;;6724606;88;20177;-77
2022/12/07 13:56:53;;;;;;;1999.90;999.90;;;6.10;99.90;;;;;;6712054;88;20692;-76
2022/12/07 14:06:53;;;;;;;1999.90;999.90;;;6.20;99.90;;;;;;6711572;88;20313;-75
2022/12/07 14:17:17;;;;;;;1999.90;999.90;;;6.10;99.90;;;;;;6708022;88;20626;-76
2022/12/07 14:27:20;;;;;;;1999.90;999.90;;;5.90;99.90;;;;;;6706424;88;20210;-76
2022/12/07 14:37:20;;;;;;;1999.90;999.90;;;5.80;99.90;;;;;;6714060;88;20190;-76
2022/12/07 14:47:21;;;;;;;1999.90;999.90;;;5.50;99.90;;;;;;6710346;88;20329;-76
2022/12/07 14:57:22;;;;;;;1999.90;999.90;;;5.50;99.90;;;;;;6706720;88;20324;-76
2022/12/07 15:07:23;;;;;;;1999.90;999.90;;;5.60;99.90;;;;;;6719891;88;20185;-75
2022/12/07 15:17:24;;;;;;;1999.90;999.90;;;5.60;99.90;;;;;;6708829;88;20182;-77
2022/12/07 15:28:05;;;;;;;1999.90;999.90;;;5.70;99.90;;;;;;6719816;77;20259;-78
2022/12/07 15:38:06;;;;;;;1999.90;999.90;;;5.60;99.90;;;;;;6705532;88;20285;-78
2022/12/07 15:48:06;;;;;;;1999.90;999.90;;;5.60;99.90;;;;;;6700495;88;20301;-77
2022/12/07 15:58:07;;;;;;;1999.90;999.90;;;5.50;99.90;;;;;;6700727;88;20507;-75
2022/12/07 16:08:08;;;;;;;1999.90;999.90;;;5.50;99.90;;;;;;6700857;88;20478;-76
2022/12/07 16:18:09;;;;;;;1999.90;999.90;;;5.60;99.90;;;;;;6700790;88;20189;-75
2022/12/07 16:28:09;;;;;;;1999.90;999.90;;;5.40;99.90;;;;;;6701181;88;20194;-76
2022/12/07 16:38:10;;;;;;;1999.90;999.90;;;5.50;99.90;;;;;;6709126;88;20772;-75
2022/12/07 16:48:10;;;;;;;1999.90;999.90;;;5.50;99.90;;;;;;6711936;88;20301;-77
2022/12/07 16:58:13;;;;;;;1999.90;999.90;;;5.50;99.90;;;;;;6700708;88;20194;-75
2022/12/07 17:08:13;;;;;;;1999.90;999.90;;;5.50;99.90;;;;;;6700194;88;20192;-77
2022/12/07 17:18:14;;;;;;;1999.90;999.90;;;5.20;99.90;;;;;;6701771;88;20186;-77
2022/12/07 17:28:14;;;;;;;1999.90;999.90;;;5.10;99.90;;;;;;6701079;88;20260;-78
2022/12/07 17:38:15;;;;;;;1999.90;999.90;;;4.90;99.90;;;;;;6701097;88;20231;-79
2022/12/07 17:48:15;;;;;;;1999.90;999.90;;;5.30;99.90;;;;;;6699920;88;20294;-77
2022/12/07 17:58:16;;;;;;;1999.90;999.90;;;5.10;99.90;;;;;;6702400;88;20728;-77
2022/12/07 18:08:16;;;;;;;1999.90;999.90;;;5.00;99.90;;;;;;6720239;88;20345;-78
2022/12/07 18:18:17;;;;;;;1999.90;999.90;;;5.00;99.90;;;;;;6721601;88;20304;-78
2022/12/07 18:28:18;;;;;;;1999.90;999.90;;;4.90;99.90;;;;;;6716948;88;20725;-77
2022/12/07 18:38:19;;;;;;;1999.90;999.90;;;4.90;99.90;;;;;;6718253;88;20180;-77
2022/12/07 18:48:21;;;;;;;1999.90;999.90;;;4.80;99.90;;;;;;6717609;88;20204;-77
2022/12/07 18:58:21;;;;;;;1999.90;999.90;;;4.80;99.90;;;;;;6715032;88;20347;-78
2022/12/07 19:08:23;;;;;;;1999.90;999.90;;;4.80;99.90;;;;;;6732498;88;20213;-77
2022/12/07 19:18:24;;;;;;;1999.90;999.90;;;4.70;99.90;;;;;;6720037;88;20212;-77
2022/12/07 19:28:24;;;;;;;1999.90;999.90;;;4.70;99.90;;;;;;6718821;88;20237;-80
2022/12/07 19:38:25;;;;;;;1999.90;999.90;;;4.60;99.90;;;;;;6714388;88;20192;-77
2022/12/07 19:48:25;;;;;;;1999.90;999.90;;;4.70;99.90;;;;;;6718561;88;20197;-77
2022/12/07 19:58:26;;;;;;;1999.90;999.90;;;4.60;99.90;;;;;;6718114;88;20655;-77
2022/12/07 20:08:26;;;;;;;1999.90;999.90;;;4.50;99.90;;;;;;6720104;88;20320;-77
2022/12/07 20:18:27;;;;;;;1999.90;999.90;;;4.60;99.90;;;;;;6720047;88;20195;-76
2022/12/07 20:28:28;;;;;;;1999.90;999.90;;;4.70;99.90;;;;;;6721187;88;20397;-76
2022/12/07 20:38:31;;;;;;;1999.90;999.90;;;4.60;99.90;;;;;;6718095;88;20693;-77
2022/12/07 20:48:31;;;;;;;1999.90;999.90;;;4.50;99.90;;;;;;6714934;88;20209;-77
2022/12/07 20:58:32;;;;;;;1999.90;999.90;;;4.60;99.90;;;;;;6720675;88;20222;-78
2022/12/07 21:08:32;;;;;;;1999.90;999.90;;;4.60;99.90;;;;;;6720551;88;20217;-77
2022/12/07 21:18:33;;;;;;;1999.90;999.90;;;4.60;99.90;;;;;;6715923;88;20368;-77
2022/12/07 21:28:33;;;;;;;1999.90;999.90;;;4.60;99.90;;;;;;6724448;77;20639;-76
2022/12/07 21:38:34;;;;;;;1999.90;999.90;;;4.60;99.90;;;;;;6725388;88;20534;-76
2022/12/07 21:48:35;;;;;;;1999.90;999.90;;;4.60;99.90;;;;;;6730929;88;20184;-76
2022/12/07 21:58:35;;;;;;;1999.90;999.90;;;4.50;99.90;;;;;;6735139;88;20709;-76
2022/12/07 22:08:36;;;;;;;1999.90;999.90;;;4.50;99.90;;;;;;6735294;88;20288;-76
2022/12/07 22:18:37;;;;;;;1999.90;999.90;;;4.40;99.90;;;;;;6719078;88;20315;-76
2022/12/07 22:28:38;;;;;;;1999.90;999.90;;;4.40;99.90;;;;;;6716029;88;20362;-76
2022/12/07 22:38:39;;;;;;;1999.90;999.90;;;4.40;99.90;;;;;;6718109;88;20203;-77
2022/12/07 22:48:40;;;;;;;1999.90;999.90;;;4.40;99.90;;;;;;6723094;88;20221;-77
2022/12/07 22:58:40;;;;;;;1999.90;999.90;;;4.40;99.90;;;;;;6736316;88;20700;-76
2022/12/07 23:08:41;;;;;;;1999.90;999.90;;;4.50;99.90;;;;;;6735662;88;20282;-76
2022/12/07 23:18:42;;;;;;;1999.90;999.90;;;4.30;99.90;;;;;;6735405;88;20245;-77
2022/12/07 23:28:42;;;;;;;1999.90;999.90;;;4.50;99.90;;;;;;6741933;88;20230;-77
2022/12/07 23:38:45;;;;;;;1999.90;999.90;;;4.40;99.90;;;;;;6737822;88;20193;-76
2022/12/07 23:48:47;;;;;;;1999.90;999.90;;;4.40;99.90;;;;;;6736343;88;20493;-76
2022/12/07 23:58:49;;;;;;;1999.90;999.90;;;4.40;99.90;;;;;;6744250;88;20164;-77
